Headsville, Texas
Current Conditions -  °F | °C
As of 12:35 AM on Wednesday 26 Nov 2014 (Local Time) from KLXY Reporting Station
Clear Clear  
Wind Chill: 39°   Ceiling: Unl
Heat Index: 43°   Visibility: 10mi
Dew Point: 31°   Wind: 6mph
Humidity: 62%   Direction: 170°S
Pressure: 30.15"   Gusts: NA
Location:  31.3327°N, 96.6013°W
Report Text: KLXY 260635Z AUTO 17005KT 10SM CLR 06/M01 A3015 RMK AO2 T00611007
Loading
Personal Weather Stations






























Interactive Weather Map New forecast layout! Learn more

10-Day Weather Forecast

Advertisements
Track Severe Weather on mobile